createdAt,value
2017-09-29T00:00:57.842Z,85.88
2017-09-29T00:01:57.867Z,85.94
2017-09-29T00:02:57.876Z,86.51
2017-09-29T00:03:57.900Z,86.17
2017-09-29T00:04:57.919Z,86.04
2017-09-29T00:05:57.943Z,85.88
2017-09-29T00:06:57.963Z,86.04
2017-09-29T00:07:57.980Z,86.27
2017-09-29T00:08:58.000Z,86.13
2017-09-29T00:09:58.030Z,86.13
2017-09-29T00:10:58.042Z,85.98
2017-09-29T00:11:58.062Z,85.21
2017-09-29T00:12:58.089Z,85.41
2017-09-29T00:13:58.101Z,85.21
2017-09-29T00:14:58.121Z,84.92
2017-09-29T00:15:58.148Z,85.21
2017-09-29T00:16:58.169Z,84.26
2017-09-29T00:17:58.182Z,84.50
2017-09-29T00:18:58.206Z,84.64
2017-09-29T00:19:58.221Z,84.92
2017-09-29T00:20:58.241Z,84.92
2017-09-29T00:21:58.262Z,84.92
2017-09-29T00:22:58.282Z,84.88
2017-09-29T00:23:58.318Z,84.79
2017-09-29T00:24:58.323Z,84.88
2017-09-29T00:25:58.343Z,84.69
2017-09-29T00:26:58.363Z,84.83
2017-09-29T00:27:58.384Z,85.46
2017-09-29T00:28:58.407Z,85.17
2017-09-29T00:29:58.423Z,85.46
2017-09-29T00:30:58.442Z,85.84
2017-09-29T00:31:58.463Z,85.65
2017-09-29T00:32:58.484Z,85.08
2017-09-29T00:33:58.505Z,86.51
2017-09-29T00:34:58.527Z,86.04
2017-09-29T00:35:58.546Z,85.75
2017-09-29T00:36:58.563Z,85.75
2017-09-29T00:37:58.583Z,86.04
2017-09-29T00:38:58.604Z,86.57
2017-09-29T00:39:58.627Z,86.85
2017-09-29T00:40:58.643Z,86.47
2017-09-29T00:41:58.664Z,85.89
2017-09-29T00:42:58.686Z,85.80
2017-09-29T00:43:58.706Z,86.47
2017-09-29T00:44:58.723Z,86.85
2017-09-29T00:45:58.746Z,87.14
2017-09-29T00:46:58.785Z,86.28
2017-09-29T00:47:58.783Z,86.37
2017-09-29T00:48:58.806Z,86.18
2017-09-29T00:49:58.824Z,86.08
2017-09-29T00:50:58.844Z,86.08
2017-09-29T00:51:58.864Z,86.08
2017-09-29T00:52:58.885Z,85.94
2017-09-29T00:53:58.907Z,86.22
2017-09-29T00:54:58.924Z,85.94
2017-09-29T00:55:58.949Z,85.84
2017-09-29T00:56:58.964Z,85.55
2017-09-29T00:57:58.984Z,85.75
2017-09-29T00:58:59.003Z,85.55
2017-09-29T00:59:59.024Z,85.36
2017-09-29T01:00:59.043Z,85.75
2017-09-29T01:01:59.065Z,85.75
2017-09-29T01:02:59.084Z,85.46
2017-09-29T01:03:59.106Z,86.13
2017-09-29T01:04:59.125Z,85.84
2017-09-29T01:05:59.146Z,86.51
2017-09-29T01:06:59.166Z,85.94
2017-09-29T01:07:59.182Z,86.04
2017-09-29T01:08:59.203Z,85.84
2017-09-29T01:09:59.230Z,85.75
2017-09-29T01:10:59.246Z,86.13
2017-09-29T01:11:59.266Z,86.04
2017-09-29T01:12:59.282Z,85.84
2017-09-29T01:13:59.305Z,85.75
2017-09-29T01:14:59.324Z,85.65
2017-09-29T01:15:59.345Z,85.75
2017-09-29T01:16:59.364Z,86.04
2017-09-29T01:17:59.392Z,85.75
2017-09-29T01:18:59.404Z,85.46
2017-09-29T01:19:59.425Z,85.08
2017-09-29T01:20:59.446Z,85.46
2017-09-29T01:21:59.464Z,85.36
2017-09-29T01:22:59.484Z,85.08
2017-09-29T01:23:59.505Z,84.88
2017-09-29T01:24:59.525Z,85.94
2017-09-29T01:25:59.543Z,85.84
2017-09-29T01:26:59.568Z,86.13
2017-09-29T01:27:59.583Z,85.55
2017-09-29T01:28:59.605Z,86.13
2017-09-29T01:29:59.628Z,86.22
2017-09-29T01:30:59.650Z,85.94
2017-09-29T01:31:59.676Z,85.84
2017-09-29T01:32:59.687Z,85.84
2017-09-29T01:33:59.718Z,85.65
2017-09-29T01:34:59.728Z,86.32
2017-09-29T01:35:59.745Z,86.22
2017-09-29T01:36:59.765Z,86.70
2017-09-29T01:37:59.786Z,87.47
2017-09-29T01:38:59.808Z,87.56
2017-09-29T01:39:59.828Z,87.27
2017-09-29T01:40:59.846Z,87.08
2017-09-29T01:41:59.942Z,87.37
2017-09-29T01:42:59.888Z,87.18
2017-09-29T01:43:59.908Z,86.61
2017-09-29T01:44:59.926Z,85.94
2017-09-29T01:45:59.949Z,85.94
2017-09-29T01:46:59.968Z,86.22
2017-09-29T01:47:59.992Z,86.17
2017-09-29T01:49:00.015Z,85.50
2017-09-29T01:50:00.029Z,85.69
2017-09-29T01:51:00.049Z,85.88
2017-09-29T01:52:00.069Z,84.92
2017-09-29T01:53:00.090Z,85.60
2017-09-29T01:54:00.109Z,85.84
2017-09-29T01:55:00.132Z,85.60
2017-09-29T01:56:00.151Z,85.60
2017-09-29T01:57:00.169Z,84.92
2017-09-29T01:58:00.193Z,85.02
2017-09-29T01:59:00.213Z,84.92
2017-09-29T02:00:00.230Z,85.21
2017-09-29T02:01:00.253Z,85.21
2017-09-29T02:02:00.272Z,85.02
2017-09-29T02:03:00.294Z,85.12
2017-09-29T02:04:00.314Z,85.02
2017-09-29T02:05:00.337Z,84.55
2017-09-29T02:06:00.355Z,84.20
2017-09-29T02:07:00.374Z,84.45
2017-09-29T02:08:00.395Z,85.41
2017-09-29T02:09:00.418Z,85.12
2017-09-29T02:10:00.434Z,85.31
2017-09-29T02:11:00.452Z,85.69
2017-09-29T02:12:00.472Z,85.79
2017-09-29T02:13:00.492Z,85.79
2017-09-29T02:14:00.514Z,84.83
2017-09-29T02:15:00.535Z,85.12
2017-09-29T02:16:00.557Z,85.12
2017-09-29T02:17:00.577Z,84.16
2017-09-29T02:18:00.595Z,84.45
2017-09-29T02:19:00.614Z,84.30
2017-09-29T02:20:00.633Z,84.35
2017-09-29T02:21:00.665Z,84.64
2017-09-29T02:22:00.677Z,84.49
2017-09-29T02:23:00.698Z,84.68
2017-09-29T02:24:00.717Z,84.68
2017-09-29T02:25:00.735Z,84.45
2017-09-29T02:26:00.756Z,84.58
2017-09-29T02:27:00.778Z,84.78
2017-09-29T02:28:00.801Z,84.68
2017-09-29T02:29:00.820Z,84.16
2017-09-29T02:30:00.837Z,84.35
2017-09-29T02:31:00.860Z,84.68
2017-09-29T02:32:00.879Z,84.16
2017-09-29T02:33:00.903Z,85.02
2017-09-29T02:34:00.927Z,85.31
2017-09-29T02:35:00.939Z,85.12
2017-09-29T02:36:00.961Z,85.41
2017-09-29T02:37:00.980Z,85.31
2017-09-29T02:38:01.001Z,86.08
2017-09-29T02:39:01.022Z,85.88
2017-09-29T02:40:01.042Z,85.60
2017-09-29T02:41:01.065Z,85.69
2017-09-29T02:42:01.083Z,85.69
2017-09-29T02:43:01.103Z,85.98
2017-09-29T02:44:01.121Z,85.98
2017-09-29T02:45:01.143Z,85.88
2017-09-29T02:46:01.165Z,86.22
2017-09-29T02:47:01.183Z,86.51
2017-09-29T02:48:01.205Z,85.94
2017-09-29T02:49:01.222Z,85.79
2017-09-29T02:50:01.249Z,85.69
2017-09-29T02:51:01.265Z,85.69
2017-09-29T02:52:01.284Z,85.98
2017-09-29T02:53:01.317Z,85.12
2017-09-29T02:54:01.328Z,85.21
2017-09-29T02:55:01.347Z,84.92
2017-09-29T02:56:01.367Z,85.12
2017-09-29T02:57:01.388Z,84.83
2017-09-29T02:58:01.406Z,84.64
2017-09-29T02:59:01.430Z,84.26
2017-09-29T03:00:01.446Z,84.35
2017-09-29T03:01:01.474Z,84.45
2017-09-29T03:02:01.486Z,84.45
2017-09-29T03:03:01.511Z,83.97
2017-09-29T03:04:01.531Z,84.26
2017-09-29T03:05:01.552Z,84.83
2017-09-29T03:06:01.569Z,84.64
2017-09-29T03:07:01.592Z,84.45
2017-09-29T03:08:01.611Z,83.87
2017-09-29T03:09:01.631Z,83.97
2017-09-29T03:10:01.651Z,83.87
2017-09-29T03:11:01.672Z,84.55
2017-09-29T03:12:01.688Z,84.26
2017-09-29T03:13:01.711Z,84.31
2017-09-29T03:14:01.732Z,84.45
2017-09-29T03:15:01.751Z,84.02
2017-09-29T03:16:01.772Z,84.26
2017-09-29T03:17:01.791Z,84.22
2017-09-29T03:18:01.810Z,84.50
2017-09-29T03:19:01.832Z,84.50
2017-09-29T03:20:01.853Z,84.26
2017-09-29T03:21:01.871Z,84.59
2017-09-29T03:22:01.893Z,84.31
2017-09-29T03:23:01.914Z,85.17
2017-09-29T03:24:01.934Z,85.17
2017-09-29T03:25:01.952Z,85.46
2017-09-29T03:26:01.973Z,85.36
2017-09-29T03:27:01.994Z,85.99
2017-09-29T03:28:02.014Z,86.85
2017-09-29T03:29:02.034Z,87.14
2017-09-29T03:30:02.057Z,87.23
2017-09-29T03:31:02.077Z,86.94
2017-09-29T03:32:02.093Z,87.71
2017-09-29T03:33:02.146Z,87.71
2017-09-29T03:34:02.152Z,87.09
2017-09-29T03:35:02.159Z,86.85
2017-09-29T03:36:02.178Z,86.47
2017-09-29T03:37:02.194Z,86.66
2017-09-29T03:38:02.224Z,86.18
2017-09-29T03:39:02.237Z,85.80
2017-09-29T03:40:02.254Z,85.99
2017-09-29T03:41:02.285Z,85.71
2017-09-29T03:42:02.295Z,85.03
2017-09-29T03:43:02.322Z,84.84
2017-09-29T03:44:02.334Z,84.94
2017-09-29T03:45:02.352Z,85.22
2017-09-29T03:46:02.380Z,85.22
2017-09-29T03:47:02.394Z,85.41
2017-09-29T03:48:02.412Z,85.41
2017-09-29T03:49:02.436Z,85.51
2017-09-29T03:50:02.453Z,85.22
2017-09-29T03:51:02.474Z,85.13
2017-09-29T03:52:02.494Z,85.41
2017-09-29T03:53:02.513Z,85.41
2017-09-29T03:54:02.538Z,85.51
2017-09-29T03:55:02.571Z,86.37
2017-09-29T03:56:02.573Z,85.89
2017-09-29T03:57:02.591Z,85.99
2017-09-29T03:58:02.614Z,85.71
2017-09-29T03:59:02.640Z,85.99
2017-09-29T04:00:02.653Z,85.71
2017-09-29T04:01:02.673Z,86.08
2017-09-29T04:02:02.701Z,85.89
2017-09-29T04:03:02.717Z,86.18
2017-09-29T04:04:02.731Z,86.08
2017-09-29T04:05:02.761Z,86.18
2017-09-29T04:06:02.774Z,85.80
2017-09-29T04:07:02.793Z,85.71
2017-09-29T04:08:02.811Z,85.61
2017-09-29T04:09:02.832Z,85.61
2017-09-29T04:10:02.851Z,85.89
2017-09-29T04:11:02.870Z,85.51
2017-09-29T04:12:02.890Z,85.71
2017-09-29T04:13:02.910Z,85.71
2017-09-29T04:14:02.934Z,86.18
2017-09-29T04:15:02.952Z,85.80
2017-09-29T04:16:02.970Z,85.51
2017-09-29T04:17:02.994Z,85.71
2017-09-29T04:18:03.011Z,85.71
2017-09-29T04:19:03.032Z,85.13
2017-09-29T04:20:03.053Z,85.61
2017-09-29T04:21:03.071Z,85.32
2017-09-29T04:22:03.092Z,85.41
2017-09-29T04:23:03.109Z,85.03
2017-09-29T04:24:03.135Z,85.41
2017-09-29T04:25:03.152Z,85.32
2017-09-29T04:26:03.168Z,84.94
2017-09-29T04:27:03.192Z,84.94
2017-09-29T04:28:03.208Z,85.03
2017-09-29T04:29:03.231Z,85.89
2017-09-29T04:30:03.252Z,85.61
2017-09-29T04:31:03.270Z,86.08
2017-09-29T04:32:03.405Z,86.28
2017-09-29T04:33:03.308Z,86.66
2017-09-29T04:34:03.331Z,87.23
2017-09-29T04:35:03.352Z,87.23
2017-09-29T04:36:03.367Z,87.23
2017-09-29T04:37:03.387Z,86.37
2017-09-29T04:38:03.409Z,86.47
2017-09-29T04:39:03.431Z,86.47
2017-09-29T04:40:03.449Z,86.76
2017-09-29T04:41:03.466Z,87.23
2017-09-29T04:42:03.487Z,87.43
2017-09-29T04:43:03.514Z,88.09
2017-09-29T04:44:03.528Z,87.86
2017-09-29T04:45:03.553Z,87.52
2017-09-29T04:46:03.567Z,87.04
2017-09-29T04:47:03.589Z,87.14
2017-09-29T04:48:03.617Z,87.33
2017-09-29T04:49:03.628Z,86.85
2017-09-29T04:50:03.647Z,87.52
2017-09-29T04:51:03.674Z,87.62
2017-09-29T04:52:03.692Z,87.62
2017-09-29T04:53:03.707Z,88.09
2017-09-29T04:54:03.728Z,88.48
2017-09-29T04:55:03.752Z,88.00
2017-09-29T04:56:03.771Z,88.09
2017-09-29T04:57:03.787Z,88.09
2017-09-29T04:58:03.809Z,88.09
2017-09-29T04:59:03.830Z,88.00
2017-09-29T05:00:03.844Z,87.33
2017-09-29T05:01:03.867Z,88.09
2017-09-29T05:02:03.887Z,88.19
2017-09-29T05:03:03.910Z,88.19
2017-09-29T05:04:03.927Z,88.86
2017-09-29T05:05:03.945Z,88.67
2017-09-29T05:06:03.967Z,88.76
2017-09-29T05:07:03.987Z,88.67
2017-09-29T05:08:04.010Z,88.86
2017-09-29T05:09:04.034Z,88.86
2017-09-29T05:10:04.046Z,88.90
2017-09-29T05:11:04.069Z,88.09
2017-09-29T05:12:04.089Z,88.19
2017-09-29T05:13:04.105Z,88.29
2017-09-29T05:14:04.127Z,88.48
2017-09-29T05:15:04.147Z,88.33
2017-09-29T05:16:04.167Z,88.00
2017-09-29T05:17:04.187Z,88.90
2017-09-29T05:18:04.205Z,88.33
2017-09-29T05:19:04.227Z,88.86
2017-09-29T05:20:04.249Z,88.71
2017-09-29T05:21:04.267Z,88.71
2017-09-29T05:22:04.297Z,88.67
2017-09-29T05:23:04.307Z,88.52
2017-09-29T05:24:04.331Z,88.23
2017-09-29T05:25:04.344Z,88.04
2017-09-29T05:26:04.371Z,88.48
2017-09-29T05:27:04.387Z,88.13
2017-09-29T05:28:04.405Z,88.13
2017-09-29T05:29:04.437Z,87.95
2017-09-29T05:30:04.445Z,87.85
2017-09-29T05:31:04.472Z,88.23
2017-09-29T05:32:04.485Z,87.85
2017-09-29T05:33:04.524Z,87.66
2017-09-29T05:34:04.528Z,88.23
2017-09-29T05:35:04.548Z,87.76
2017-09-29T05:36:04.567Z,88.04
2017-09-29T05:37:04.586Z,87.76
2017-09-29T05:38:04.611Z,88.19
2017-09-29T05:39:04.627Z,88.95
2017-09-29T05:40:04.650Z,88.19
2017-09-29T05:41:04.669Z,88.48
2017-09-29T05:42:04.691Z,88.09
2017-09-29T05:43:04.708Z,88.86
2017-09-29T05:44:04.728Z,88.53
2017-09-29T05:45:04.748Z,89.15
2017-09-29T05:46:04.769Z,88.86
2017-09-29T05:47:04.789Z,88.95
2017-09-29T05:48:04.808Z,89.10
2017-09-29T05:49:04.828Z,88.57
2017-09-29T05:50:04.850Z,88.48
2017-09-29T05:51:04.867Z,88.00
2017-09-29T05:52:04.885Z,88.19
2017-09-29T05:53:04.907Z,88.09
2017-09-29T05:54:04.928Z,88.00
2017-09-29T05:55:04.948Z,88.09
2017-09-29T05:56:04.966Z,88.04
2017-09-29T05:57:04.986Z,87.43
2017-09-29T05:58:05.008Z,88.09
2017-09-29T05:59:05.028Z,88.00
2017-09-29T06:00:05.049Z,88.13
2017-09-29T06:01:05.066Z,87.71
2017-09-29T06:02:05.086Z,88.23
2017-09-29T06:03:05.109Z,87.76
2017-09-29T06:04:05.128Z,87.47
2017-09-29T06:05:05.147Z,86.99
2017-09-29T06:06:05.165Z,87.95
2017-09-29T06:07:05.187Z,87.76
2017-09-29T06:08:05.204Z,87.76
2017-09-29T06:09:05.228Z,87.85
2017-09-29T06:10:05.249Z,88.76
2017-09-29T06:11:05.267Z,88.76
2017-09-29T06:12:05.286Z,89.24
2017-09-29T06:13:05.308Z,88.86
2017-09-29T06:14:05.327Z,89.48
2017-09-29T06:15:05.352Z,89.24
2017-09-29T06:16:05.366Z,89.15
2017-09-29T06:17:05.390Z,89.53
2017-09-29T06:18:05.410Z,89.48
2017-09-29T06:19:05.429Z,88.43
2017-09-29T06:20:05.449Z,88.86
2017-09-29T06:21:05.466Z,89.62
2017-09-29T06:22:05.508Z,89.19
2017-09-29T06:23:05.513Z,89.00
2017-09-29T06:24:05.536Z,89.19
2017-09-29T06:25:05.550Z,87.85
2017-09-29T06:26:05.572Z,87.80
2017-09-29T06:27:05.590Z,87.32
2017-09-29T06:28:05.609Z,86.84
2017-09-29T06:29:05.630Z,86.46
2017-09-29T06:30:05.650Z,86.74
2017-09-29T06:31:05.674Z,87.13
2017-09-29T06:32:05.695Z,88.09
2017-09-29T06:33:05.709Z,87.23
2017-09-29T06:34:05.730Z,87.23
2017-09-29T06:35:05.753Z,87.32
2017-09-29T06:36:05.773Z,86.74
2017-09-29T06:37:05.796Z,86.50
2017-09-29T06:38:05.817Z,86.21
2017-09-29T06:39:05.832Z,85.93
2017-09-29T06:40:05.858Z,85.74
2017-09-29T06:41:05.873Z,85.64
2017-09-29T06:42:05.900Z,84.82
2017-09-29T06:43:05.921Z,84.97
2017-09-29T06:44:05.937Z,85.39
2017-09-29T06:45:05.957Z,84.91
2017-09-29T06:46:05.977Z,84.63
2017-09-29T06:47:06.000Z,84.53
2017-09-29T06:48:06.020Z,84.05
2017-09-29T06:49:06.041Z,83.48
2017-09-29T06:50:06.067Z,83.48
2017-09-29T06:51:06.082Z,84.25
2017-09-29T06:52:06.103Z,85.83
2017-09-29T06:53:06.131Z,85.45
2017-09-29T06:54:06.148Z,85.78
2017-09-29T06:55:06.166Z,84.53
2017-09-29T06:56:06.192Z,83.42
2017-09-29T06:57:06.217Z,83.71
2017-09-29T06:58:06.227Z,83.67
2017-09-29T06:59:06.250Z,83.76
2017-09-29T07:00:06.270Z,83.95
2017-09-29T07:01:06.294Z,84.53
2017-09-29T07:02:06.320Z,83.86
2017-09-29T07:03:06.336Z,83.67
2017-09-29T07:04:06.355Z,83.33
2017-09-29T07:05:06.377Z,82.37
2017-09-29T07:06:06.399Z,82.12
2017-09-29T07:07:06.419Z,80.97
2017-09-29T07:08:06.441Z,81.16
2017-09-29T07:09:06.461Z,81.07
2017-09-29T07:10:06.480Z,80.78
2017-09-29T07:11:06.515Z,80.78
2017-09-29T07:12:06.524Z,80.78
2017-09-29T07:13:06.546Z,80.97
2017-09-29T07:14:06.577Z,81.16
2017-09-29T07:15:06.589Z,80.82
2017-09-29T07:16:06.613Z,80.63
2017-09-29T07:17:06.631Z,79.03
2017-09-29T07:18:06.655Z,78.42
2017-09-29T07:19:06.674Z,78.42
2017-09-29T07:20:06.696Z,78.80
2017-09-29T07:21:06.723Z,80.20
2017-09-29T07:22:06.742Z,80.49
2017-09-29T07:23:06.764Z,80.58
2017-09-29T07:24:06.784Z,81.64
2017-09-29T07:25:06.806Z,82.70
2017-09-29T07:26:06.827Z,82.27
2017-09-29T07:27:06.846Z,82.18
2017-09-29T07:28:06.868Z,82.46
2017-09-29T07:29:06.893Z,82.35
2017-09-29T07:30:06.912Z,80.43
2017-09-29T07:31:06.937Z,80.34
2017-09-29T07:32:06.955Z,79.61
2017-09-29T07:33:06.979Z,78.84
2017-09-29T07:34:07.005Z,78.55
2017-09-29T07:35:07.022Z,77.92
2017-09-29T07:36:07.043Z,77.73
2017-09-29T07:37:07.065Z,77.83
2017-09-29T07:38:07.089Z,77.34
2017-09-29T07:39:07.107Z,77.06
2017-09-29T07:40:07.131Z,76.71
2017-09-29T07:41:07.152Z,77.53
2017-09-29T07:42:07.177Z,77.78
2017-09-29T07:43:07.196Z,78.17
2017-09-29T07:44:07.224Z,77.73
2017-09-29T07:45:07.239Z,77.38
2017-09-29T07:46:07.265Z,76.46
2017-09-29T07:47:07.285Z,75.54
2017-09-29T07:48:07.313Z,74.09
2017-09-29T07:49:07.338Z,73.26
2017-09-29T07:50:07.353Z,73.07
2017-09-29T07:51:07.376Z,71.88
2017-09-29T07:52:07.400Z,72.94
2017-09-29T07:53:07.422Z,72.11
2017-09-29T07:54:07.444Z,71.28
2017-09-29T07:55:07.471Z,71.88
2017-09-29T07:56:07.498Z,72.94
2017-09-29T07:57:07.513Z,71.85
2017-09-29T07:58:07.537Z,71.37
2017-09-29T07:59:07.563Z,71.12
2017-09-29T08:00:07.584Z,68.55
2017-09-29T08:01:07.608Z,69.23
2017-09-29T08:02:07.643Z,68.43
2017-09-29T08:03:07.657Z,65.69
2017-09-29T08:04:07.681Z,64.47
2017-09-29T08:05:07.705Z,63.37
2017-09-29T08:06:07.731Z,60.78
2017-09-29T08:07:07.765Z,59.94
2017-09-29T08:08:07.781Z,59.30
2017-09-29T08:09:07.808Z,57.97
2017-09-29T08:10:07.828Z,57.12
2017-09-29T08:11:07.856Z,56.25
2017-09-29T08:12:07.878Z,55.64
2017-09-29T08:13:07.905Z,59.28
2017-09-29T08:14:07.932Z,63.28
2017-09-29T08:15:07.956Z,64.11
2017-09-29T08:16:07.982Z,66.11
2017-09-29T08:17:08.009Z,66.59
2017-09-29T08:18:08.044Z,66.20
2017-09-29T08:19:08.059Z,66.63
2017-09-29T08:20:08.082Z,65.50
2017-09-29T08:21:08.107Z,65.66
2017-09-29T08:22:08.133Z,66.66
2017-09-29T08:23:08.157Z,67.46
2017-09-29T08:24:08.184Z,65.20
2017-09-29T08:25:08.212Z,63.31
2017-09-29T08:26:08.235Z,64.79
2017-09-29T08:27:08.259Z,67.71
2017-09-29T08:28:08.281Z,67.85
2017-09-29T08:29:08.307Z,66.14
2017-09-29T08:30:08.333Z,66.30
2017-09-29T08:31:08.358Z,68.45
2017-09-29T08:32:08.383Z,70.09
2017-09-29T08:33:08.407Z,70.00
2017-09-29T08:34:08.430Z,69.87
2017-09-29T08:35:08.454Z,71.56
2017-09-29T08:36:08.480Z,73.10
2017-09-29T08:37:08.502Z,71.22
2017-09-29T08:38:08.526Z,71.79
2017-09-29T08:39:08.552Z,71.41
2017-09-29T08:40:08.574Z,72.14
2017-09-29T08:41:08.597Z,72.72
2017-09-29T08:42:08.623Z,73.58
2017-09-29T08:43:08.651Z,72.27
2017-09-29T08:44:08.672Z,71.98
2017-09-29T08:45:08.698Z,72.43
2017-09-29T08:46:08.720Z,73.20
2017-09-29T08:47:08.744Z,73.46
2017-09-29T08:48:08.765Z,74.86
2017-09-29T08:49:08.803Z,74.13
2017-09-29T08:50:08.812Z,74.51
2017-09-29T08:51:08.837Z,74.22
2017-09-29T08:52:08.863Z,74.51
2017-09-29T08:53:08.885Z,75.15
2017-09-29T08:54:08.911Z,75.54
2017-09-29T08:55:08.931Z,75.34
2017-09-29T08:56:08.954Z,75.63
2017-09-29T08:57:08.977Z,74.86
2017-09-29T08:58:08.999Z,76.59
2017-09-29T08:59:09.024Z,76.36
2017-09-29T09:00:09.044Z,76.78
2017-09-29T09:01:09.068Z,76.59
2017-09-29T09:02:09.093Z,76.06
2017-09-29T09:03:09.119Z,76.21
2017-09-29T09:04:09.136Z,76.11
2017-09-29T09:05:09.161Z,76.78
2017-09-29T09:06:09.182Z,76.06
2017-09-29T09:07:09.211Z,74.07
2017-09-29T09:08:09.228Z,73.30
2017-09-29T09:09:09.251Z,72.72
2017-09-29T09:10:09.271Z,72.18
2017-09-29T09:11:09.297Z,71.98
2017-09-29T09:12:09.319Z,71.70
2017-09-29T09:13:09.350Z,71.98
2017-09-29T09:14:09.365Z,73.05
2017-09-29T09:15:09.390Z,71.89
2017-09-29T09:16:09.411Z,71.41
2017-09-29T09:17:09.434Z,72.14
2017-09-29T09:18:09.460Z,71.79
2017-09-29T09:19:09.487Z,72.85
2017-09-29T09:20:09.505Z,72.18
2017-09-29T09:21:09.526Z,72.47
2017-09-29T09:22:09.549Z,72.08
2017-09-29T09:23:09.575Z,71.70
2017-09-29T09:24:09.596Z,73.39
2017-09-29T09:25:09.619Z,73.53
2017-09-29T09:26:09.641Z,71.98
2017-09-29T09:27:09.670Z,72.21
2017-09-29T09:28:09.688Z,71.64
2017-09-29T09:29:09.711Z,70.28
2017-09-29T09:30:09.735Z,71.15
2017-09-29T09:31:09.759Z,69.90
2017-09-29T09:32:09.781Z,69.84
2017-09-29T09:33:09.804Z,69.55
2017-09-29T09:34:09.833Z,69.90
2017-09-29T09:35:09.853Z,70.00
2017-09-29T09:36:09.878Z,70.42
2017-09-29T09:37:09.896Z,70.19
2017-09-29T09:38:09.921Z,71.60
2017-09-29T09:39:09.945Z,71.79
2017-09-29T09:40:09.967Z,71.60
2017-09-29T09:41:09.993Z,71.06
2017-09-29T09:42:10.015Z,70.09
2017-09-29T09:43:10.048Z,69.93
2017-09-29T09:44:10.061Z,70.86
2017-09-29T09:45:10.083Z,70.51
2017-09-29T09:46:10.113Z,70.86
2017-09-29T09:47:10.131Z,70.96
2017-09-29T09:48:10.169Z,71.06
2017-09-29T09:49:10.182Z,71.06
2017-09-29T09:50:10.204Z,70.76
2017-09-29T09:51:10.224Z,72.27
2017-09-29T09:52:10.245Z,71.70
2017-09-29T09:53:10.273Z,71.15
2017-09-29T09:54:10.296Z,70.64
2017-09-29T09:55:10.318Z,71.12
2017-09-29T09:56:10.344Z,71.02
2017-09-29T09:57:10.368Z,70.00
2017-09-29T09:58:10.389Z,70.19
2017-09-29T09:59:10.413Z,70.28
2017-09-29T10:00:10.438Z,70.25
2017-09-29T10:01:10.461Z,71.31
2017-09-29T10:02:10.483Z,70.76
2017-09-29T10:03:10.505Z,69.80
2017-09-29T10:04:10.529Z,69.74
2017-09-29T10:05:10.554Z,69.07
2017-09-29T10:06:10.576Z,68.52
2017-09-29T10:07:10.603Z,69.55
2017-09-29T10:08:10.629Z,70.22
2017-09-29T10:09:10.647Z,70.16
2017-09-29T10:10:10.672Z,68.62
2017-09-29T10:11:10.696Z,68.71
2017-09-29T10:12:10.723Z,68.71
2017-09-29T10:13:10.742Z,68.04
2017-09-29T10:14:10.765Z,67.91
2017-09-29T10:15:10.787Z,67.75
2017-09-29T10:16:10.815Z,69.55
2017-09-29T10:17:10.834Z,68.52
2017-09-29T10:18:10.876Z,68.55
2017-09-29T10:19:10.884Z,68.33
2017-09-29T10:20:10.907Z,67.11
2017-09-29T10:21:10.932Z,68.23
2017-09-29T10:22:10.959Z,67.94
2017-09-29T10:23:10.977Z,67.65
2017-09-29T10:24:11.002Z,68.52
2017-09-29T10:25:11.025Z,68.71
2017-09-29T10:26:11.048Z,67.75
2017-09-29T10:27:11.073Z,68.33
2017-09-29T10:28:11.096Z,68.91
2017-09-29T10:29:11.120Z,68.81
2017-09-29T10:30:11.158Z,68.97
2017-09-29T10:31:11.169Z,68.81
2017-09-29T10:32:11.190Z,68.91
2017-09-29T10:33:11.216Z,68.13
2017-09-29T10:34:11.240Z,67.78
2017-09-29T10:35:11.263Z,67.49
2017-09-29T10:36:11.285Z,67.24
2017-09-29T10:37:11.311Z,67.14
2017-09-29T10:38:11.333Z,66.66
2017-09-29T10:39:11.363Z,67.49
2017-09-29T10:40:11.383Z,67.97
2017-09-29T10:41:11.408Z,67.97
2017-09-29T10:42:11.431Z,67.88
2017-09-29T10:43:11.519Z,67.40
2017-09-29T10:44:11.477Z,68.26
2017-09-29T10:45:11.502Z,67.88
2017-09-29T10:46:11.525Z,66.56
2017-09-29T10:47:11.552Z,66.56
2017-09-29T10:48:11.575Z,67.30
2017-09-29T10:49:11.597Z,68.36
2017-09-29T10:50:11.625Z,68.26
2017-09-29T10:51:11.647Z,67.14
2017-09-29T10:52:11.668Z,67.01
2017-09-29T10:53:11.694Z,67.01
2017-09-29T10:54:11.719Z,66.75
2017-09-29T10:55:11.744Z,66.08
2017-09-29T10:56:11.767Z,66.94
2017-09-29T10:57:11.792Z,68.04
2017-09-29T10:58:11.814Z,68.17
2017-09-29T10:59:11.839Z,67.62
2017-09-29T11:00:11.862Z,67.43
2017-09-29T11:01:11.886Z,67.14
2017-09-29T11:02:11.914Z,67.69
2017-09-29T11:03:11.936Z,68.52
2017-09-29T11:04:11.961Z,68.17
2017-09-29T11:05:11.990Z,68.46
2017-09-29T11:06:12.009Z,68.26
2017-09-29T11:07:12.033Z,67.97
2017-09-29T11:08:12.055Z,68.36
2017-09-29T11:09:12.079Z,68.07
2017-09-29T11:10:12.105Z,68.26
2017-09-29T11:11:12.131Z,68.26
2017-09-29T11:12:12.154Z,67.59
2017-09-29T11:13:12.178Z,67.91
2017-09-29T11:14:12.202Z,66.30
2017-09-29T11:15:12.234Z,67.24
2017-09-29T11:16:12.249Z,66.66
2017-09-29T11:17:12.273Z,66.66
2017-09-29T11:18:12.296Z,68.36
2017-09-29T11:19:12.324Z,68.07
2017-09-29T11:20:12.350Z,67.97
2017-09-29T11:21:12.372Z,68.84
2017-09-29T11:22:12.395Z,68.65
2017-09-29T11:23:12.431Z,69.23
2017-09-29T11:24:12.452Z,69.13
2017-09-29T11:25:12.467Z,68.10
2017-09-29T11:26:12.492Z,68.07
2017-09-29T11:27:12.516Z,68.75
2017-09-29T11:28:12.539Z,68.75
2017-09-29T11:29:12.566Z,68.40
2017-09-29T11:30:12.587Z,68.65
2017-09-29T11:31:12.613Z,69.36
2017-09-29T11:32:12.639Z,68.46
2017-09-29T11:33:12.664Z,68.46
2017-09-29T11:34:12.687Z,68.91
2017-09-29T11:35:12.711Z,69.10
2017-09-29T11:36:12.734Z,70.16
2017-09-29T11:37:12.760Z,70.32
2017-09-29T11:38:12.784Z,70.16
2017-09-29T11:39:12.809Z,68.84
2017-09-29T11:40:12.830Z,68.17
2017-09-29T11:41:12.853Z,68.62
2017-09-29T11:42:12.881Z,70.26
2017-09-29T11:43:12.907Z,69.10
2017-09-29T11:44:12.928Z,69.49
2017-09-29T11:45:12.952Z,69.58
2017-09-29T11:46:12.978Z,68.36
2017-09-29T11:47:13.002Z,68.81
2017-09-29T11:48:13.024Z,68.43
2017-09-29T11:49:13.053Z,68.94
2017-09-29T11:50:13.072Z,68.52
2017-09-29T11:51:13.098Z,69.58
2017-09-29T11:52:13.121Z,68.81
2017-09-29T11:53:13.145Z,68.81
2017-09-29T11:54:13.170Z,68.52
2017-09-29T11:55:13.193Z,69.84
2017-09-29T11:56:13.219Z,71.44
2017-09-29T11:57:13.241Z,71.54
2017-09-29T11:58:13.264Z,70.57
2017-09-29T11:59:13.290Z,71.64
2017-09-29T12:00:13.313Z,71.89
2017-09-29T12:01:13.334Z,71.44
2017-09-29T12:02:13.359Z,72.47
2017-09-29T12:03:13.384Z,72.18
2017-09-29T12:04:13.406Z,73.43
2017-09-29T12:05:13.429Z,72.21
2017-09-29T12:06:13.455Z,71.73
2017-09-29T12:07:13.478Z,71.00
2017-09-29T12:08:13.506Z,70.42
2017-09-29T12:09:13.523Z,69.93
2017-09-29T12:10:13.548Z,70.06
2017-09-29T12:11:13.573Z,69.20
2017-09-29T12:12:13.594Z,70.13
2017-09-29T12:13:13.617Z,70.64
2017-09-29T12:14:13.643Z,69.78
2017-09-29T12:15:13.668Z,69.10
2017-09-29T12:16:13.689Z,69.10
2017-09-29T12:17:13.713Z,68.91
2017-09-29T12:18:13.734Z,68.52
2017-09-29T12:19:13.760Z,69.20
2017-09-29T12:20:13.785Z,68.52
2017-09-29T12:21:13.806Z,68.36
2017-09-29T12:22:13.831Z,68.26
2017-09-29T12:23:13.854Z,67.88
2017-09-29T12:24:13.877Z,67.49
2017-09-29T12:25:13.904Z,67.20
2017-09-29T12:26:13.931Z,67.43
2017-09-29T12:27:13.947Z,66.36
2017-09-29T12:28:13.974Z,66.01
2017-09-29T12:29:14.004Z,65.98
2017-09-29T12:30:14.023Z,67.01
2017-09-29T12:31:14.045Z,67.78
2017-09-29T12:32:14.066Z,67.69
2017-09-29T12:33:14.089Z,66.75
2017-09-29T12:34:14.115Z,67.04
2017-09-29T12:35:14.137Z,65.63
2017-09-29T12:36:14.164Z,65.08
2017-09-29T12:37:14.189Z,64.21
2017-09-29T12:38:14.213Z,64.34
2017-09-29T12:39:14.238Z,63.95
2017-09-29T12:40:14.262Z,65.72
2017-09-29T12:41:14.284Z,64.79
2017-09-29T12:42:14.308Z,65.85
2017-09-29T12:43:14.336Z,65.05
2017-09-29T12:44:14.357Z,66.01
2017-09-29T12:46:14.410Z,65.82
2017-09-29T12:47:14.433Z,64.66
2017-09-29T12:48:14.455Z,65.17
2017-09-29T12:49:14.481Z,66.14
2017-09-29T12:50:14.505Z,67.75
2017-09-29T12:51:14.528Z,67.85
2017-09-29T12:52:14.551Z,68.23
2017-09-29T12:53:14.578Z,68.23
2017-09-29T12:54:14.600Z,68.62